Data for 10/19/2008

Time Sea-Level Adjusted Pressure Absolute Pressure Temperature Relative Humidity Dew Point   
(mb) (inHg) (mb) (inHg) (C) (F) (%) (C) (F)
00:05 1019 30.09 848 25.04 7.9 46.1 65 1.6 34.9
00:10 1019 30.09 848 25.04 7.8 46 65 1.7 35
00:15 1019 30.09 848 25.04 8 46.4 64 1.7 35.1
00:20 1019 30.09 848 25.04 8 46.4 64 1.7 35
00:25 1019 30.09 848 25.04 7.9 46.2 65 1.8 35.2
00:30 1019 30.09 848 25.04 7.9 46.2 65 1.7 35
00:35 1019 30.09 848 25.04 8.1 46.5 62 1.2 34.2
00:40 1019 30.09 848 25.04 8.1 46.6 62 1.3 34.3
00:45 1019 30.09 848 25.04 8.1 46.6 63 1.5 34.7
00:50 1019 30.09 849 25.07 7.8 46.1 64 1.5 34.7
00:55 1019 30.09 849 25.07 7.5 45.5 66 1.6 35
01:00 1019 30.09 849 25.07 7.5 45.5 66 1.6 34.9
01:05 1019 30.09 849 25.07 7.8 46 64 1.5 34.7
01:10 1019 30.09 849 25.07 8 46.3 64 1.6 34.8
01:15 1019 30.09 849 25.07 7.9 46.2 65 1.7 35
01:20 1019 30.09 849 25.07 7.8 46 65 1.7 35
01:25 1019 30.09 849 25.07 7.6 45.7 65 1.6 34.9
01:30 1019 30.09 849 25.07 7.6 45.6 66 1.6 34.9
01:35 1019 30.09 849 25.07 7.5 45.5 66 1.6 34.8
01:40 1020 30.12 849 25.07 7.6 45.6 65 1.5 34.7
01:45 1020 30.12 849 25.07 7.6 45.6 66 1.6 34.9
01:50 1020 30.12 849 25.07 7.6 45.6 66 1.5 34.8
01:55 1020 30.12 849 25.07 7.4 45.3 67 1.6 34.8
02:00 1020 30.12 849 25.07 7.1 44.8 68 1.5 34.8
02:05 1020 30.12 849 25.07 6.9 44.4 69 1.6 34.8
02:10 1020 30.12 849 25.07 6.7 44.1 69 1.4 34.5
02:15 1020 30.12 849 25.07 6.9 44.4 68 1.4 34.5
02:20 1020 30.12 849 25.07 7 44.6 68 1.5 34.7
02:25 1020 30.12 849 25.07 7 44.7 68 1.5 34.7
02:30 1020 30.12 849 25.07 7.2 44.9 67 1.5 34.6
02:35 1020 30.12 849 25.07 7.3 45.1 67 1.5 34.7
02:40 1020 30.12 849 25.07 7.3 45.1 66 1.4 34.6
02:45 1020 30.12 849 25.07 7.5 45.5 64 1.2 34.1
02:50 1020 30.12 849 25.07 7.4 45.4 66 1.5 34.7
02:55 1020 30.12 849 25.07 7 44.6 68 1.4 34.6
03:00 1020 30.12 849 25.07 6.8 44.2 68 1.3 34.3
03:05 1020 30.12 849 25.07 7.1 44.8 66 1.1 34
03:10 1020 30.12 849 25.07 7.4 45.4 66 1.5 34.7
03:15 1020 30.12 850 25.1 7.4 45.4 67 1.7 35.1
03:20 1020 30.12 850 25.1 7 44.7 69 1.7 35
03:25 1021 30.15 850 25.1 7 44.6 69 1.6 34.9
03:30 1021 30.15 850 25.1 7.3 45.2 67 1.6 34.8
03:35 1021 30.15 850 25.1 7.3 45.2 69 2 35.6
03:40 1021 30.15 850 25.1 7.6 45.7 65 1.4 34.6
03:45 1021 30.15 850 25.1 7.6 45.7 68 2.2 35.9
03:50 1021 30.15 850 25.1 7.3 45.2 69 2 35.7
03:55 1021 30.15 850 25.1 7.4 45.3 71 2.5 36.5
04:00 1021 30.15 850 25.1 7.4 45.4 69 2.1 35.8
04:05 1021 30.15 850 25.1 7.7 45.8 68 2.1 35.8
04:10 1021 30.15 850 25.1 7.6 45.8 70 2.5 36.6
04:15 1021 30.15 850 25.1 7.7 45.8 72 3 37.4
04:20 1021 30.15 850 25.1 7.7 45.8 75 3.6 38.5
04:25 1021 30.15 850 25.1 7.5 45.4 77 3.6 38.5
04:30 1021 30.15 850 25.1 7.4 45.2 79 4 39.2
04:35 1021 30.15 850 25.1 7.1 44.7 82 4.2 39.6
04:40 1021 30.15 850 25.1 6.8 44.2 84 4.2 39.5
04:45 1021 30.15 850 25.1 6.7 44 85 4.3 39.7
04:50 1021 30.15 850 25.1 6.7 44 83 4 39.3
04:55 1021 30.15 850 25.1 6.9 44.3 82 3.9 39.1
05:00 1021 30.15 850 25.1 7.2 45 83 4.6 40.2
05:05 1021 30.15 851 25.13 7.3 45.2 80 4.1 39.4
05:10 1021 30.15 851 25.13 7.3 45.2 79 4 39.2
05:15 1021 30.15 851 25.13 7.3 45.1 81 4.2 39.6
05:20 1021 30.15 851 25.13 7 44.6 82 4.2 39.6
05:25 1021 30.15 851 25.13 6.8 44.3 84 4.3 39.7
05:30 1022 30.18 851 25.13 7 44.6 84 4.4 40
05:35 1022 30.18 851 25.13 6.9 44.4 90 5.3 41.6
05:40 1022 30.18 851 25.13 6.4 43.4 90 4.8 40.6
05:45 1022 30.18 851 25.13 6.4 43.5 88 4.5 40.2
05:50 1022 30.18 851 25.13 6.4 43.5 89 4.6 40.3
05:55 1022 30.18 851 25.13 6.3 43.3 90 4.8 40.6
06:00 1022 30.18 851 25.13 6.2 43.2 89 4.6 40.3
06:05 1022 30.18 851 25.13 6.1 43.1 88 4.4 39.8
06:10 1022 30.18 851 25.13 6.1 42.9 91 4.7 40.4
06:15 1022 30.18 851 25.13 6.1 43.1 91 4.8 40.7
06:20 1022 30.18 851 25.13 6.1 42.9 93 4.9 40.9
06:25 1022 30.18 851 25.13 5.9 42.6 93 4.9 40.8
06:30 1022 30.18 851 25.13 6.1 43 92 4.8 40.7
06:35 1022 30.18 851 25.13 6.3 43.4 90 4.9 40.8
06:40 1022 30.18 851 25.13 6.4 43.6 90 4.9 40.9
06:45 1022 30.18 851 25.13 6.5 43.7 89 4.8 40.6
06:50 1022 30.18 851 25.13 6.3 43.4 91 5 41
06:55 1022 30.18 851 25.13 5.9 42.6 93 4.8 40.6
07:00 1022 30.18 851 25.13 5.8 42.4 93 4.8 40.6
07:05 1022 30.18 851 25.13 5.7 42.3 93 4.7 40.4
07:10 1022 30.18 851 25.13 5.8 42.4 93 4.7 40.5
07:15 1022 30.18 851 25.13 5.8 42.4 93 4.7 40.4
07:20 1022 30.18 851 25.13 5.9 42.5 91 4.5 40.1
07:25 1022 30.18 851 25.13 5.8 42.4 91 4.4 39.9
07:30 1022 30.18 851 25.13 5.7 42.3 91 4.3 39.8
07:35 1022 30.18 851 25.13 5.6 42.2 91 4.3 39.7
07:40 1022 30.18 851 25.13 5.6 42 91 4.2 39.5
07:45 1022 30.18 851 25.13 5.6 42.1 91 4.2 39.6
07:50 1022 30.18 851 25.13 5.7 42.2 90 4.2 39.5
07:55 1022 30.18 851 25.13 5.6 42.1 90 4.2 39.5
08:00 1022 30.18 851 25.13 5.5 42 91 4.1 39.5
08:05 1022 30.18 852 25.16 5.2 41.4 91 4 39.1
08:10 1022 30.18 852 25.16 5.3 41.5 91 3.9 39.1
08:15 1022 30.18 852 25.16 5.4 41.6 90 3.9 39
08:20 1023 30.21 852 25.16 5.3 41.6 90 3.9 39
08:25 1023 30.21 852 25.16 5.3 41.5 90 3.8 38.9
08:30 1023 30.21 852 25.16 5.1 41.2 91 3.7 38.7
08:35 1023 30.21 852 25.16 5.3 41.6 90 3.8 38.8
08:40 1023 30.21 852 25.16 5.7 42.3 88 3.9 39
08:45 1023 30.21 852 25.16 6.2 43.2 87 4.2 39.5
08:50 1023 30.21 852 25.16 6.3 43.3 87 4.2 39.6
08:55 1023 30.21 852 25.16 6.5 43.6 85 4.1 39.5
09:00 1023 30.21 852 25.16 6.7 44.1 87 4.7 40.5
09:05 1023 30.21 852 25.16 6.7 44.1 86 4.5 40.2
09:10 1023 30.21 852 25.16 6.8 44.2 86 4.7 40.4
09:15 1023 30.21 852 25.16 6.7 44 87 4.6 40.4
09:20 1023 30.21 852 25.16 7.2 45 83 4.6 40.2
09:25 1023 30.21 852 25.16 7.6 45.7 81 4.6 40.3
09:30 1023 30.21 852 25.16 7.9 46.2 81 4.8 40.7
09:35 1023 30.21 852 25.16 8.4 47 79 4.9 40.9
09:40 1023 30.21 852 25.16 8.3 47 79 4.9 40.7
09:45 1023 30.21 852 25.16 8.4 47.1 78 4.9 40.8
09:50 1023 30.21 852 25.16 8.7 47.6 77 4.9 40.9
09:55 1023 30.21 852 25.16 8.9 47.9 77 5.1 41.2
10:00 1023 30.21 852 25.16 9.5 49.1 74 5.2 41.3
10:05 1023 30.21 852 25.16 9.3 48.7 74 4.8 40.7
10:10 1023 30.21 852 25.16 9.7 49.4 75 5.4 41.7
10:15 1023 30.21 852 25.16 9.9 49.9 72 5.1 41.1
10:20 1023 30.21 852 25.16 10.1 50.2 71 5.2 41.3
10:25 1023 30.21 852 25.16 10.7 51.3 68 5 41.1
10:30 1023 30.21 852 25.16 11.3 52.3 67 5.4 41.8
10:35 1023 30.21 852 25.16 11.4 52.5 66 5.3 41.5
10:40 1023 30.21 852 25.16 11.5 52.6 67 5.6 42.1
10:45 1023 30.21 852 25.16 11.3 52.3 68 5.6 42.1
10:50 1023 30.21 852 25.16 12.1 53.7 63 5.2 41.4
10:55 1023 30.21 852 25.16 11.8 53.3 64 5.3 41.5
11:00 1023 30.21 852 25.16 12 53.5 64 5.4 41.7
11:05 1023 30.21 852 25.16 12.2 53.9 61 4.8 40.7
11:10 1023 30.21 852 25.16 12.2 54 61 4.9 40.8
11:15 1023 30.21 853 25.19 12 53.6 62 5 41
11:20 1023 30.21 853 25.19 12.2 53.9 63 5.4 41.7
11:25 1023 30.21 853 25.19 12 53.5 63 5.2 41.4
11:30 1023 30.21 853 25.19 12.5 54.4 64 5.9 42.6
11:35 1023 30.21 852 25.16 12.4 54.4 63 5.6 42
11:40 1023 30.21 852 25.16 12.9 55.1 61 5.7 42.2
11:45 1023 30.21 852 25.16 13.2 55.8 63 6.4 43.5
11:50 1023 30.21 852 25.16 13.3 55.9 59 5.4 41.8
11:55 1023 30.21 852 25.16 13.4 56.1 63 6.5 43.7
12:00 1023 30.21 852 25.16 12.6 54.7 61 5.3 41.6
12:05 1023 30.21 852 25.16 12.9 55.1 59 5 41
12:10 1023 30.21 852 25.16 13.1 55.5 60 5.5 41.9
12:15 1023 30.21 852 25.16 13.2 55.7 58 5.2 41.3
12:20 1023 30.21 852 25.16 12.9 55.3 54 4 39.2
12:25 1023 30.21 852 25.16 13.1 55.6 55 4.3 39.8
12:30 1023 30.21 852 25.16 13.5 56.2 57 5.1 41.1
12:35 1023 30.21 852 25.16 13 55.4 54 4 39.1
12:40 1023 30.21 852 25.16 13.7 56.7 50 3.5 38.4
12:45 1023 30.21 852 25.16 14 57.2 52 4.4 39.9
12:50 1023 30.21 852 25.16 13.4 56.1 51 3.5 38.2
12:55 1023 30.21 852 25.16 14.4 57.9 47 3.3 37.9
13:00 1023 30.21 852 25.16 14.1 57.3 47 3.1 37.5
13:05 1023 30.21 852 25.16 14.5 58 46 3 37.5
13:10 1023 30.21 852 25.16 14.8 58.6 48 3.9 39
13:15 1023 30.21 852 25.16 14.7 58.4 46 3.3 37.9
13:20 1023 30.21 852 25.16 15.6 60.1 47 4.4 39.9
13:25 1023 30.21 852 25.16 14.4 57.9 49 3.9 39
13:30 1023 30.21 852 25.16 15.1 59.1 47 3.8 38.9
13:35 1023 30.21 852 25.16 14.5 58 48 3.7 38.6
13:40 1023 30.21 852 25.16 15.8 60.4 42 2.9 37.2
13:45 1023 30.21 852 25.16 15.4 59.6 47 4.2 39.5
13:50 1023 30.21 852 25.16 14 57.2 50 3.7 38.7
13:55 1023 30.21 852 25.16 13.8 56.8 48 2.9 37.3
14:00 1023 30.21 852 25.16 14.7 58.5 43 2.5 36.5
14:05 1023 30.21 852 25.16 14.6 58.3 46 3.2 37.8
14:10 1023 30.21 852 25.16 14.1 57.4 45 2.6 36.6
14:15 1023 30.21 852 25.16 15.1 59.2 41 2.1 35.8
14:20 1023 30.21 852 25.16 15.4 59.7 42 2.6 36.7
14:25 1022 30.18 852 25.16 14.8 58.7 42 2.3 36.1
14:30 1022 30.18 852 25.16 15.1 59.2 41 2.2 36
14:35 1022 30.18 852 25.16 14.9 58.8 39 1.3 34.3
14:40 1022 30.18 852 25.16 15.2 59.3 39 1.4 34.4
14:45 1022 30.18 852 25.16 15.1 59.1 38 0.8 33.5
14:50 1022 30.18 852 25.16 16.2 61.2 37 1.4 34.6
14:55 1022 30.18 852 25.16 16.2 61.2 37 1.6 34.9
15:00 1022 30.18 852 25.16 16.2 61.1 35 0.9 33.6
15:05 1022 30.18 852 25.16 16.8 62.2 35 1.4 34.5
15:10 1022 30.18 851 25.13 16.1 61.1 36 1.2 34.1
15:15 1022 30.18 851 25.13 15.7 60.2 35 0.2 32.4
15:20 1022 30.18 851 25.13 16.2 61.1 34 0.2 32.4
15:25 1022 30.18 851 25.13 16.9 62.5 33 0.7 33.3
15:30 1022 30.18 851 25.13 16.2 61.2 35 0.9 33.7
15:35 1022 30.18 851 25.13 15.5 59.9 34 0 32
15:40 1022 30.18 851 25.13 16.4 61.6 32 -0.3 31.4
15:45 1022 30.18 851 25.13 16.7 62 31 -0.4 31.2
15:50 1022 30.18 851 25.13 17 62.5 31 -0.2 31.7
15:55 1022 30.18 851 25.13 15.8 60.4 33 -0.2 31.6
16:00 1022 30.18 851 25.13 15.4 59.7 32 -0.9 30.4
16:05 1022 30.18 851 25.13 15.4 59.7 34 -0.5 31.1
16:10 1022 30.18 851 25.13 15.3 59.6 34 -0.3 31.5
16:15 1022 30.18 851 25.13 15.3 59.5 40 2 35.6
16:20 1022 30.18 851 25.13 14.9 58.8 43 2.5 36.6
16:25 1022 30.18 851 25.13 14.9 58.9 43 2.6 36.8
16:30 1022 30.18 851 25.13 14.8 58.7 44 2.6 36.8
16:35 1022 30.18 851 25.13 14.9 58.9 44 2.9 37.2
16:40 1022 30.18 852 25.16 14.6 58.3 46 3.1 37.6
16:45 1022 30.18 852 25.16 14.3 57.7 47 3.3 37.9
16:50 1022 30.18 852 25.16 14.1 57.3 48 3.4 38.1
16:55 1022 30.18 852 25.16 13.9 57 51 4.1 39.3
17:00 1022 30.18 852 25.16 13.5 56.2 53 4.1 39.4
17:05 1022 30.18 851 25.13 13.5 56.2 52 3.9 39
17:10 1022 30.18 852 25.16 13.5 56.3 52 4 39.1
17:15 1022 30.18 852 25.16 13.4 56.1 53 4 39.1
17:20 1022 30.18 852 25.16 13.3 56 53 4.1 39.4
17:25 1022 30.18 852 25.16 13.3 56 53 3.9 39.1
17:30 1022 30.18 852 25.16 13.4 56.1 53 4.2 39.6
17:35 1022 30.18 852 25.16 13 55.4 56 4.5 40.1
17:40 1022 30.18 852 25.16 12.6 54.7 57 4.4 39.9
17:45 1022 30.18 851 25.13 12.5 54.4 58 4.4 39.9
17:50 1022 30.18 851 25.13 12.3 54.2 59 4.5 40.1
17:55 1022 30.18 852 25.16 12.3 54.1 60 4.7 40.5
18:00 1022 30.18 852 25.16 12 53.6 60 4.6 40.2
18:05 1022 30.18 852 25.16 11.8 53.3 61 4.6 40.3
18:10 1022 30.18 852 25.16 11.7 53 63 4.8 40.6
18:15 1022 30.18 852 25.16 11.4 52.6 64 4.9 40.8
18:20 1022 30.18 852 25.16 11.2 52.1 65 4.9 40.8
18:25 1022 30.18 852 25.16 10.9 51.6 66 4.9 40.8
18:30 1022 30.18 852 25.16 10.7 51.2 68 5 40.9
18:35 1022 30.18 852 25.16 10.4 50.7 69 5 41
18:40 1022 30.18 852 25.16 10.2 50.3 70 5 40.9
18:45 1022 30.18 852 25.16 10 50 71 5 41.1
18:50 1022 30.18 852 25.16 9.8 49.7 71 4.9 40.9
18:55 1022 30.18 852 25.16 9.7 49.4 72 4.9 40.8
19:00 1023 30.21 852 25.16 9.5 49.2 72 4.7 40.5
19:05 1023 30.21 852 25.16 9.4 48.9 72 4.7 40.5
19:10 1023 30.21 852 25.16 9.2 48.6 73 4.6 40.4
19:15 1023 30.21 852 25.16 9.1 48.5 73 4.7 40.4
19:20 1023 30.21 852 25.16 9 48.2 73 4.4 40
19:25 1023 30.21 852 25.16 9 48.2 73 4.5 40.1
19:30 1023 30.21 852 25.16 8.9 48 73 4.4 40
19:35 1023 30.21 852 25.16 8.8 47.9 74 4.4 40
19:40 1023 30.21 852 25.16 8.8 47.8 73 4.2 39.6
19:45 1023 30.21 852 25.16 8.8 47.9 73 4.2 39.6
19:50 1023 30.21 852 25.16 8.8 47.8 73 4.2 39.5
19:55 1023 30.21 852 25.16 8.7 47.7 73 4.2 39.6
20:00 1023 30.21 852 25.16 8.6 47.4 74 4.3 39.7
20:05 1023 30.21 852 25.16 8.5 47.4 75 4.4 39.9
20:10 1023 30.21 852 25.16 8.5 47.2 76 4.4 40
20:15 1023 30.21 852 25.16 8.4 47.1 77 4.5 40.2
20:20 1023 30.21 852 25.16 8.3 47 77 4.5 40.1
20:25 1023 30.21 852 25.16 8.2 46.8 77 4.4 40
20:30 1023 30.21 852 25.16 8.2 46.7 77 4.3 39.8
20:35 1023 30.21 852 25.16 8.1 46.7 78 4.5 40.1
20:40 1023 30.21 852 25.16 8 46.5 79 4.6 40.2
20:45 1023 30.21 852 25.16 7.9 46.2 80 4.6 40.2
20:50 1023 30.21 852 25.16 7.8 46 80 4.6 40.2
20:55 1023 30.21 852 25.16 7.7 45.9 80 4.6 40.2
21:00 1023 30.21 852 25.16 7.7 45.8 80 4.5 40.1
21:05 1023 30.21 852 25.16 7.7 45.8 80 4.5 40.1
21:10 1023 30.21 852 25.16 7.7 45.8 80 4.5 40.1
21:15 1023 30.21 852 25.16 7.6 45.8 80 4.5 40
21:20 1023 30.21 852 25.16 7.6 45.7 81 4.5 40
21:25 1023 30.21 852 25.16 7.6 45.6 81 4.5 40.1
21:30 1023 30.21 852 25.16 7.5 45.5 81 4.4 40
21:35 1023 30.21 852 25.16 7.4 45.4 81 4.5 40
21:40 1023 30.21 852 25.16 7.3 45.2 82 4.5 40
21:45 1023 30.21 852 25.16 7.3 45.2 82 4.5 40.1
21:50 1023 30.21 852 25.16 7.3 45.2 82 4.4 40
21:55 1023 30.21 852 25.16 7.3 45.1 82 4.4 40
22:00 1023 30.21 852 25.16 7.3 45.1 82 4.4 39.9
22:05 1023 30.21 852 25.16 7.2 45 82 4.4 39.9
22:10 1023 30.21 852 25.16 7.2 45 82 4.4 39.9
22:15 1023 30.21 852 25.16 7.3 45.1 82 4.4 39.9
22:20 1023 30.21 852 25.16 7.2 45 82 4.4 40
22:25 1023 30.21 852 25.16 7.2 44.9 82 4.3 39.8
22:30 1023 30.21 852 25.16 7.2 44.9 83 4.4 39.9
22:35 1023 30.21 852 25.16 7.1 44.7 82 4.3 39.7
22:40 1023 30.21 852 25.16 7.1 44.7 83 4.3 39.8
22:45 1023 30.21 852 25.16 7 44.6 82 4.1 39.5
22:50 1023 30.21 852 25.16 7 44.6 83 4.3 39.7
22:55 1023 30.21 852 25.16 6.9 44.5 83 4.2 39.6
23:00 1023 30.21 852 25.16 6.9 44.5 83 4.2 39.6
23:05 1023 30.21 852 25.16 6.9 44.4 82 4.1 39.4
23:10 1023 30.21 852 25.16 6.9 44.4 83 4.2 39.5
23:15 1023 30.21 852 25.16 6.8 44.3 83 4.2 39.6
23:20 1023 30.21 852 25.16 6.8 44.2 84 4.3 39.7
23:25 1023 30.21 852 25.16 6.7 44.1 85 4.4 39.9
23:30 1023 30.21 852 25.16 6.6 43.9 85 4.3 39.8
23:35 1023 30.21 852 25.16 6.6 43.8 86 4.4 39.9
23:40 1023 30.21 852 25.16 6.5 43.8 86 4.4 39.8
23:45 1023 30.21 852 25.16 6.5 43.6 86 4.3 39.7
23:50 1023 30.21 852 25.16 6.5 43.6 86 4.3 39.7
23:55 1023 30.21 852 25.16 6.4 43.6 86 4.3 39.8
24:00 1023 30.21 852 25.16 6.4 43.6 86 4.3 39.8